Time;durP1;ratioP1;P1;durP2;ratioP2;P2;SDS_P1;SDS_P2;PMS_P1;PMS_P2;Temp;Humidity;BMP_temperature;BMP_pressure;BME280_temperature;BME280_humidity;BME280_pressure;Samples;Min_cycle;Max_cycle;Signal;HPM_P1;HPM_P2
2022/06/26 00:00:06;;;;;;;4.60;2.05;;;20.40;74.20;;;;;;5053786;28;20390;-69
2022/06/26 00:02:35;;;;;;;2.50;1.48;;;20.30;74.40;;;;;;5056000;28;20120;-68
2022/06/26 00:05:02;;;;;;;4.43;1.88;;;20.30;74.50;;;;;;5056871;28;20091;-69
2022/06/26 00:07:35;;;;;;;2.13;1.65;;;20.20;74.70;;;;;;5057912;28;20143;-68
2022/06/26 00:10:02;;;;;;;2.53;1.60;;;20.20;74.90;;;;;;5059940;28;20049;-70
2022/06/26 00:12:30;;;;;;;6.75;1.90;;;20.10;75.00;;;;;;5062244;28;20037;-66
2022/06/26 00:14:57;;;;;;;4.22;2.30;;;20.10;75.00;;;;;;5059626;28;20124;-70
2022/06/26 00:17:24;;;;;;;3.75;1.70;;;20.10;75.10;;;;;;5060223;28;20043;-70
2022/06/26 00:19:53;;;;;;;6.28;1.88;;;20.10;75.20;;;;;;5058974;28;20515;-70
2022/06/26 00:22:21;;;;;;;3.25;1.80;;;20.10;75.20;;;;;;5061909;28;20404;-69
2022/06/26 00:24:48;;;;;;;5.97;1.70;;;20.10;75.20;;;;;;5061102;28;20505;-67
2022/06/26 00:27:15;;;;;;;4.47;1.90;;;20.10;75.30;;;;;;5062658;28;20041;-66
2022/06/26 00:29:43;;;;;;;3.22;2.05;;;20.10;75.30;;;;;;5059685;28;20087;-70
2022/06/26 00:32:10;;;;;;;3.33;2.05;;;20.20;75.10;;;;;;5059195;28;20055;-68
2022/06/26 00:34:37;;;;;;;4.97;1.95;;;20.10;75.10;;;;;;5060636;28;20047;-69
2022/06/26 00:37:04;;;;;;;4.82;2.03;;;20.10;75.00;;;;;;5061071;28;20587;-68
2022/06/26 00:39:31;;;;;;;4.07;2.05;;;20.10;74.80;;;;;;5042238;28;20106;-67
2022/06/26 00:41:58;;;;;;;4.55;2.50;;;20.10;74.70;;;;;;5059617;28;20052;-68
2022/06/26 00:44:26;;;;;;;4.70;2.30;;;20.10;74.60;;;;;;5059283;28;20447;-69
2022/06/26 00:46:55;;;;;;;3.45;2.15;;;20.10;74.60;;;;;;5060192;28;20041;-70
2022/06/26 00:49:22;;;;;;;2.38;1.90;;;20.10;74.60;;;;;;5059485;28;20393;-69
2022/06/26 00:51:51;;;;;;;4.75;2.10;;;20.10;74.40;;;;;;5058295;28;20520;-71
2022/06/26 00:54:20;;;;;;;3.42;1.67;;;20.10;74.40;;;;;;5074062;28;20128;-70
2022/06/26 00:56:48;;;;;;;2.93;1.77;;;20.10;74.50;;;;;;5055459;28;20048;-66
2022/06/26 00:59:15;;;;;;;2.78;1.80;;;20.00;74.70;;;;;;5057828;28;20460;-69
2022/06/26 01:01:43;;;;;;;3.58;2.17;;;20.10;74.30;;;;;;5053378;28;20051;-68
2022/06/26 01:04:11;;;;;;;3.13;2.10;;;20.00;74.30;;;;;;5057316;28;20052;-65
2022/06/26 01:06:38;;;;;;;4.35;2.25;;;20.10;74.50;;;;;;5048927;28;20132;-67
2022/06/26 01:09:10;;;;;;;6.22;2.38;;;20.10;74.40;;;;;;5057418;28;20045;-68
2022/06/26 01:11:38;;;;;;;5.95;2.08;;;20.00;74.50;;;;;;5040010;28;20056;-68
2022/06/26 01:14:06;;;;;;;5.25;1.95;;;19.90;74.60;;;;;;5053000;28;20123;-67
2022/06/26 01:16:34;;;;;;;3.38;1.73;;;20.00;74.50;;;;;;5055531;28;20049;-67
2022/06/26 01:19:02;;;;;;;4.22;2.20;;;20.00;74.30;;;;;;5056796;28;20546;-66
2022/06/26 01:21:30;;;;;;;2.70;1.92;;;20.00;74.20;;;;;;5071585;28;20048;-68
2022/06/26 01:23:59;;;;;;;3.85;2.20;;;20.00;74.20;;;;;;5056353;28;20048;-69
2022/06/26 01:26:27;;;;;;;3.38;1.95;;;19.90;74.50;;;;;;5056916;28;20044;-69
2022/06/26 01:28:54;;;;;;;4.55;2.30;;;19.90;74.60;;;;;;5058078;28;20056;-66
2022/06/26 01:31:22;;;;;;;4.63;2.03;;;19.80;74.70;;;;;;5073541;28;20124;-67
2022/06/26 01:33:50;;;;;;;4.38;2.00;;;19.80;74.70;;;;;;5059236;28;20113;-68
2022/06/26 01:36:17;;;;;;;8.60;2.58;;;19.90;74.60;;;;;;5057392;28;20048;-69
2022/06/26 01:38:45;;;;;;;4.00;2.53;;;19.80;75.10;;;;;;5041929;28;20049;-67
2022/06/26 01:41:13;;;;;;;5.13;2.60;;;19.60;75.50;;;;;;5058258;28;20097;-68
2022/06/26 01:43:40;;;;;;;3.40;2.08;;;19.40;76.40;;;;;;5056407;28;20433;-68
2022/06/26 01:46:08;;;;;;;3.90;1.95;;;19.20;77.10;;;;;;5057138;28;20088;-68
2022/06/26 01:48:39;;;;;;;5.00;2.45;;;19.30;77.10;;;;;;5058125;28;20041;-68
2022/06/26 01:51:09;;;;;;;5.10;2.40;;;19.30;76.90;;;;;;5058160;28;20040;-70
2022/06/26 01:53:38;;;;;;;3.20;1.95;;;19.40;76.60;;;;;;5041477;28;20496;-69
2022/06/26 01:56:06;;;;;;;4.72;1.83;;;19.40;76.50;;;;;;5057982;28;20045;-69
2022/06/26 01:58:37;;;;;;;3.90;2.17;;;19.50;76.30;;;;;;5056916;28;20052;-68
2022/06/26 02:01:05;;;;;;;3.97;2.30;;;19.50;76.30;;;;;;5037460;28;20041;-68
2022/06/26 02:03:32;;;;;;;3.25;2.17;;;19.40;76.40;;;;;;5056143;28;20083;-67
2022/06/26 02:05:59;;;;;;;3.17;2.00;;;19.40;76.50;;;;;;5041909;28;20068;-71
2022/06/26 02:08:26;;;;;;;2.42;1.88;;;19.40;76.50;;;;;;5059034;28;20613;-68
2022/06/26 02:13:42;;;;;;;4.18;2.10;;;19.30;76.50;;;;;;5059295;28;20380;-70
2022/06/26 02:16:13;;;;;;;3.15;1.95;;;19.30;76.70;;;;;;5058049;28;20045;-70
2022/06/26 02:18:44;;;;;;;3.50;2.33;;;19.40;76.70;;;;;;5054905;28;20048;-69
2022/06/26 02:21:13;;;;;;;3.38;1.92;;;19.30;76.80;;;;;;5040732;28;20067;-68
2022/06/26 02:23:41;;;;;;;3.05;2.00;;;19.20;76.90;;;;;;5057227;28;20072;-66
2022/06/26 02:26:09;;;;;;;4.93;2.13;;;19.30;76.80;;;;;;5039999;28;20500;-70
2022/06/26 02:28:39;;;;;;;2.83;1.77;;;19.20;76.90;;;;;;5054871;28;20040;-67
2022/06/26 02:31:08;;;;;;;4.00;2.45;;;19.20;77.00;;;;;;5057635;28;20395;-66
2022/06/26 02:33:35;;;;;;;5.88;2.05;;;19.20;77.10;;;;;;5055224;28;20047;-68
2022/06/26 02:36:03;;;;;;;4.38;2.03;;;19.10;77.20;;;;;;5054005;28;20114;-67
2022/06/26 02:38:30;;;;;;;4.05;1.85;;;19.10;77.40;;;;;;5043894;28;20072;-68
2022/06/26 02:40:59;;;;;;;6.10;2.00;;;19.10;77.50;;;;;;5048207;28;20052;-68
2022/06/26 02:43:27;;;;;;;2.60;1.75;;;19.10;77.60;;;;;;5087054;28;20041;-67
2022/06/26 02:45:55;;;;;;;5.93;2.42;;;19.10;77.60;;;;;;5055422;28;20055;-66
2022/06/26 02:48:25;;;;;;;4.45;2.13;;;19.10;77.60;;;;;;5071697;28;20070;-67
2022/06/26 02:50:53;;;;;;;4.55;2.35;;;19.10;77.50;;;;;;5053893;28;20065;-67
2022/06/26 02:53:20;;;;;;;3.05;2.15;;;19.10;77.40;;;;;;5054437;28;20040;-70
2022/06/26 02:55:47;;;;;;;3.00;1.92;;;19.10;77.50;;;;;;5054540;28;20087;-68
2022/06/26 02:58:16;;;;;;;3.58;2.00;;;19.10;77.60;;;;;;5055590;28;20057;-67
2022/06/26 03:00:52;;;;;;;4.80;2.22;;;19.00;77.70;;;;;;5046311;28;20049;-68
2022/06/26 03:03:19;;;;;;;3.72;2.38;;;19.00;77.70;;;;;;5053564;28;20036;-68
2022/06/26 03:05:48;;;;;;;7.88;2.20;;;18.90;77.80;;;;;;5055354;28;20103;-67
2022/06/26 03:08:15;;;;;;;5.85;1.90;;;19.00;77.80;;;;;;5054527;28;20124;-67
2022/06/26 03:10:48;;;;;;;3.25;2.13;;;18.90;77.90;;;;;;5053869;28;20041;-70
2022/06/26 03:13:16;;;;;;;7.25;2.42;;;18.90;78.00;;;;;;5057350;28;20040;-65
2022/06/26 03:15:50;;;;;;;5.00;2.17;;;18.90;77.80;;;;;;5056071;28;20552;-67
2022/06/26 03:18:19;;;;;;;6.00;2.35;;;19.00;77.60;;;;;;5055899;28;20045;-66
2022/06/26 03:20:46;;;;;;;4.40;2.03;;;19.00;77.20;;;;;;5056737;28;20052;-66
2022/06/26 03:23:14;;;;;;;3.42;2.22;;;19.00;77.00;;;;;;5055495;28;20086;-72
2022/06/26 03:25:41;;;;;;;3.97;2.50;;;19.00;76.80;;;;;;5054741;28;20073;-69
2022/06/26 03:28:08;;;;;;;3.38;2.28;;;19.00;76.80;;;;;;5056686;28;20045;-66
2022/06/26 03:30:44;;;;;;;5.63;2.45;;;19.00;76.90;;;;;;5055757;28;20193;-68
2022/06/26 03:33:11;;;;;;;5.55;2.33;;;19.00;77.00;;;;;;5057834;28;20039;-68
2022/06/26 03:35:38;;;;;;;9.40;2.35;;;19.00;76.70;;;;;;5054297;28;20131;-68
2022/06/26 03:38:07;;;;;;;4.53;2.40;;;19.10;76.70;;;;;;5055434;28;20040;-70
2022/06/26 03:40:36;;;;;;;3.92;2.20;;;19.00;76.70;;;;;;5054087;28;20072;-69
2022/06/26 03:43:04;;;;;;;3.10;1.98;;;19.00;76.80;;;;;;5055568;28;20048;-67
2022/06/26 03:45:47;;;;;;;4.75;2.58;;;19.00;76.80;;;;;;5043009;28;20048;-68
2022/06/26 03:48:14;;;;;;;5.05;2.20;;;19.00;76.80;;;;;;5060565;28;20045;-68
2022/06/26 03:50:41;;;;;;;4.13;2.33;;;19.10;76.60;;;;;;5060448;28;20045;-67
2022/06/26 03:53:08;;;;;;;5.13;2.20;;;19.00;76.70;;;;;;5062665;28;20041;-67
2022/06/26 03:55:37;;;;;;;3.83;2.17;;;19.00;76.70;;;;;;5057844;28;20094;-68
2022/06/26 03:58:04;;;;;;;5.60;2.20;;;19.10;76.50;;;;;;5058160;28;20052;-67
2022/06/26 04:00:34;;;;;;;;;;;19.10;76.60;;;;;;5052283;28;20049;-67
2022/06/26 04:03:03;;;;;;;4.05;2.40;;;19.10;76.70;;;;;;5050064;28;19966;-67
2022/06/26 04:05:31;;;;;;;4.88;2.17;;;19.10;76.90;;;;;;5066087;28;20508;-69
2022/06/26 04:07:59;;;;;;;6.45;2.33;;;18.90;77.80;;;;;;5048925;28;20091;-68
2022/06/26 04:10:38;;;;;;;7.55;2.83;;;18.70;78.60;;;;;;5048725;28;20044;-67
2022/06/26 04:13:15;;;;;;;3.53;2.40;;;18.70;78.70;;;;;;5057176;28;20626;-68
2022/06/26 04:15:43;;;;;;;6.85;2.35;;;18.70;78.70;;;;;;5056857;28;20552;-67
2022/06/26 04:18:10;;;;;;;4.57;2.25;;;18.80;78.50;;;;;;5057150;28;20511;-69
2022/06/26 04:20:38;;;;;;;3.45;2.03;;;18.90;78.30;;;;;;5039085;28;20041;-69
2022/06/26 04:23:07;;;;;;;4.70;2.67;;;18.90;78.40;;;;;;5074408;28;20358;-69
2022/06/26 04:25:38;;;;;;;3.10;2.10;;;18.80;78.60;;;;;;5057182;28;20568;-66
2022/06/26 04:28:06;;;;;;;;;;;18.90;78.50;;;;;;5057389;28;20063;-71
2022/06/26 04:30:37;;;;;;;3.70;1.90;;;19.00;78.20;;;;;;5057086;28;20019;-70
2022/06/26 04:33:06;;;;;;;3.65;2.10;;;19.10;77.80;;;;;;5028451;28;20053;-68
2022/06/26 04:35:35;;;;;;;4.10;2.30;;;19.20;77.70;;;;;;5051410;28;20045;-67
2022/06/26 04:38:05;;;;;;;3.55;2.40;;;19.20;77.90;;;;;;5056927;28;20045;-68
2022/06/26 04:40:32;;;;;;;6.20;2.13;;;19.30;77.90;;;;;;5056765;28;20531;-66
2022/06/26 04:42:59;;;;;;;3.30;1.98;;;19.30;77.60;;;;;;5073080;28;21147;-67
2022/06/26 04:45:27;;;;;;;5.80;2.20;;;19.40;77.40;;;;;;5046388;28;20056;-71
2022/06/26 04:47:58;;;;;;;5.20;2.38;;;19.40;77.40;;;;;;5045512;28;20057;-69
2022/06/26 04:50:25;;;;;;;3.22;2.00;;;19.40;77.50;;;;;;5054016;28;20052;-73
2022/06/26 04:52:54;;;;;;;3.60;2.00;;;19.40;77.50;;;;;;5055485;28;20448;-73
2022/06/26 04:55:26;;;;;;;4.63;2.30;;;19.40;77.70;;;;;;5055159;28;20111;-70
2022/06/26 04:57:53;;;;;;;5.60;2.20;;;19.40;77.70;;;;;;5038060;28;20045;-69
2022/06/26 05:00:20;;;;;;;3.78;2.00;;;19.40;77.60;;;;;;5050021;28;20041;-68
2022/06/26 05:02:57;;;;;;;6.13;2.30;;;19.50;77.70;;;;;;5056424;28;20459;-68
2022/06/26 05:05:37;;;;;;;3.95;2.08;;;19.60;77.40;;;;;;5053522;28;20412;-68
2022/06/26 05:08:25;;;;;;;5.45;2.17;;;19.60;77.50;;;;;;5051321;28;20049;-66
2022/06/26 05:10:52;;;;;;;4.53;2.65;;;19.60;77.40;;;;;;5056118;28;20060;-66
2022/06/26 05:13:19;;;;;;;3.97;2.28;;;19.60;77.50;;;;;;5058128;28;20534;-66
2022/06/26 05:15:46;;;;;;;4.32;2.75;;;19.60;77.60;;;;;;5053298;28;20045;-67
2022/06/26 05:18:16;;;;;;;4.43;2.42;;;19.60;77.60;;;;;;5049657;28;20435;-69
2022/06/26 05:20:43;;;;;;;3.97;2.05;;;19.60;77.70;;;;;;5053158;28;20124;-69
2022/06/26 05:23:11;;;;;;;3.38;1.95;;;19.60;77.60;;;;;;5050386;28;20080;-67
2022/06/26 05:25:47;;;;;;;4.72;2.67;;;19.70;77.60;;;;;;5030318;28;20057;-67
2022/06/26 05:28:14;;;;;;;6.05;2.60;;;19.70;77.50;;;;;;5045512;28;20056;-68
2022/06/26 05:30:41;;;;;;;3.15;2.13;;;19.60;77.60;;;;;;5061757;28;20056;-67
2022/06/26 05:33:10;;;;;;;4.57;2.00;;;19.70;77.50;;;;;;5049356;28;20673;-66
2022/06/26 05:35:39;;;;;;;4.00;2.55;;;19.70;77.60;;;;;;5048490;28;20036;-67
2022/06/26 05:38:06;;;;;;;2.80;1.75;;;19.70;77.70;;;;;;5041274;28;20558;-67
2022/06/26 05:40:33;;;;;;;3.97;2.28;;;19.70;77.90;;;;;;5053633;28;20044;-66
2022/06/26 05:43:01;;;;;;;3.08;1.83;;;19.80;77.90;;;;;;5047940;28;20065;-67
2022/06/26 05:45:29;;;;;;;5.50;2.40;;;19.80;77.80;;;;;;5047786;28;20048;-66
2022/06/26 05:48:14;;;;;;;3.63;2.30;;;19.90;77.90;;;;;;5054840;28;20056;-68
2022/06/26 05:50:48;;;;;;;3.03;2.15;;;19.90;77.80;;;;;;5042555;28;20045;-71
2022/06/26 05:53:34;;;;;;;3.38;2.10;;;19.90;77.60;;;;;;5045081;28;20045;-72
2022/06/26 05:56:26;;;;;;;4.97;2.40;;;19.90;77.50;;;;;;5045008;28;20111;-67
2022/06/26 05:59:12;;;;;;;4.30;2.00;;;20.00;77.50;;;;;;5040558;28;20079;-70
2022/06/26 06:01:58;;;;;;;3.85;2.28;;;20.00;77.50;;;;;;5042896;28;20081;-67
2022/06/26 06:04:25;;;;;;;3.00;2.00;;;20.10;77.50;;;;;;5042651;28;20417;-67
2022/06/26 06:06:53;;;;;;;3.90;2.25;;;20.10;77.70;;;;;;5026985;28;20072;-70
2022/06/26 06:09:20;;;;;;;4.55;2.40;;;20.20;77.60;;;;;;5042771;28;20130;-68
2022/06/26 06:11:47;;;;;;;7.55;2.20;;;20.20;77.20;;;;;;5043490;28;20132;-69
2022/06/26 06:14:17;;;;;;;;;;;20.30;77.00;;;;;;5050856;28;20045;-69
2022/06/26 06:16:44;;;;;;;4.65;2.40;;;20.40;77.10;;;;;;5048748;28;19924;-70
2022/06/26 06:19:11;;;;;;;3.22;2.17;;;20.50;76.70;;;;;;5048855;28;20484;-69
2022/06/26 06:21:42;;;;;;;5.43;2.42;;;20.50;76.60;;;;;;5028929;28;20075;-67
2022/06/26 06:24:12;;;;;;;5.57;2.28;;;20.60;76.40;;;;;;5058943;28;20729;-68
2022/06/26 06:26:39;;;;;;;3.55;2.20;;;20.60;76.30;;;;;;5040557;28;20053;-66
2022/06/26 06:29:17;;;;;;;3.78;2.25;;;20.60;76.10;;;;;;5059668;28;20425;-67
2022/06/26 06:31:44;;;;;;;2.95;2.05;;;20.70;75.80;;;;;;5045568;28;20534;-70
2022/06/26 06:34:13;;;;;;;4.03;2.00;;;20.90;75.50;;;;;;5039973;28;20059;-67
2022/06/26 06:36:41;;;;;;;3.72;1.90;;;21.00;75.70;;;;;;5043027;28;20060;-67
2022/06/26 06:39:09;;;;;;;3.03;1.90;;;21.10;74.80;;;;;;5049591;28;20072;-67
2022/06/26 06:41:38;;;;;;;5.40;1.73;;;21.10;74.70;;;;;;5035691;28;20055;-69
2022/06/26 06:44:08;;;;;;;4.40;2.25;;;21.20;74.30;;;;;;5050412;28;20519;-69
2022/06/26 06:47:13;;;;;;;4.13;2.15;;;21.20;74.30;;;;;;5050010;28;20049;-70
2022/06/26 06:50:00;;;;;;;4.05;2.25;;;21.30;74.30;;;;;;5045084;28;20045;-69
2022/06/26 06:52:26;;;;;;;3.70;2.55;;;21.50;73.80;;;;;;5043351;28;20040;-70
2022/06/26 06:54:54;;;;;;;7.32;3.08;;;21.60;74.00;;;;;;5049850;28;20048;-70
2022/06/26 06:57:22;;;;;;;5.40;2.92;;;21.80;73.00;;;;;;5057103;28;20530;-69
2022/06/26 06:59:49;;;;;;;5.00;2.67;;;21.90;72.50;;;;;;5052920;28;20057;-68
2022/06/26 07:02:16;;;;;;;3.65;2.13;;;21.90;72.30;;;;;;5043754;28;20087;-69
2022/06/26 07:04:46;;;;;;;;;;;21.90;72.30;;;;;;5046572;28;20055;-70
2022/06/26 07:07:12;;;;;;;3.92;2.05;;;21.90;72.00;;;;;;5053081;28;20023;-67
2022/06/26 07:09:40;;;;;;;1.85;1.17;;;21.80;71.60;;;;;;5043992;28;20048;-68
2022/06/26 07:12:09;;;;;;;3.20;1.23;;;21.80;71.20;;;;;;5044464;28;20045;-66
2022/06/26 07:14:37;;;;;;;1.52;1.20;;;21.80;71.00;;;;;;5056333;28;20452;-69
2022/06/26 07:17:04;;;;;;;3.42;1.00;;;21.80;71.40;;;;;;5047263;28;20042;-70
2022/06/26 07:19:31;;;;;;;3.20;1.10;;;21.90;70.90;;;;;;5047650;28;20054;-68
2022/06/26 07:22:01;;;;;;;2.67;1.00;;;21.90;71.50;;;;;;5049336;28;20404;-66
2022/06/26 07:24:28;;;;;;;2.60;1.20;;;22.00;71.10;;;;;;5034848;28;20501;-68
2022/06/26 07:27:08;;;;;;;5.07;1.17;;;22.10;71.10;;;;;;5045260;28;20057;-68
2022/06/26 07:29:42;;;;;;;1.38;0.90;;;22.10;71.00;;;;;;5047752;28;20057;-70
2022/06/26 07:32:09;;;;;;;4.13;1.05;;;22.30;70.90;;;;;;5051824;28;20134;-69
2022/06/26 07:34:36;;;;;;;1.45;0.93;;;22.40;70.60;;;;;;5045160;28;20033;-67
2022/06/26 07:37:04;;;;;;;1.35;0.95;;;22.80;69.80;;;;;;5043535;28;20086;-67
2022/06/26 07:39:32;;;;;;;2.53;1.20;;;23.00;69.40;;;;;;5052661;28;20508;-69
2022/06/26 07:42:00;;;;;;;2.25;1.33;;;23.40;67.90;;;;;;5052007;28;20488;-69
2022/06/26 07:44:31;;;;;;;3.92;1.20;;;23.60;67.10;;;;;;5049226;28;20045;-68
2022/06/26 07:46:59;;;;;;;1.52;1.02;;;23.50;67.40;;;;;;5049383;28;20493;-70
2022/06/26 07:49:45;;;;;;;2.45;1.30;;;23.60;66.60;;;;;;5050866;28;20055;-66
2022/06/26 07:52:13;;;;;;;1.92;1.02;;;23.80;66.40;;;;;;5047898;28;20553;-69
2022/06/26 07:54:41;;;;;;;2.63;1.50;;;23.90;66.20;;;;;;5045782;28;20045;-68
2022/06/26 07:57:08;;;;;;;3.78;1.42;;;24.10;64.70;;;;;;5046757;28;20559;-68
2022/06/26 07:59:35;;;;;;;5.10;1.80;;;24.30;63.90;;;;;;5045326;28;20195;-67
2022/06/26 08:02:04;;;;;;;3.28;1.83;;;24.40;63.40;;;;;;5043477;28;20052;-67
2022/06/26 08:04:31;;;;;;;2.97;1.50;;;24.40;63.40;;;;;;5045287;28;20045;-69
2022/06/26 08:06:57;;;;;;;5.28;1.80;;;24.50;63.00;;;;;;5049268;28;20037;-68
2022/06/26 08:09:24;;;;;;;3.15;1.30;;;24.60;62.50;;;;;;5050064;28;20400;-69
2022/06/26 08:11:51;;;;;;;3.53;1.58;;;24.70;62.20;;;;;;5049721;28;20062;-66
2022/06/26 08:14:18;;;;;;;2.17;1.40;;;24.80;61.80;;;;;;5053229;28;20528;-69
2022/06/26 08:16:45;;;;;;;2.55;0.95;;;24.90;61.50;;;;;;5051577;28;20139;-67
2022/06/26 08:19:13;;;;;;;3.05;1.17;;;24.90;61.40;;;;;;5051458;28;20040;-69
2022/06/26 08:24:25;;;;;;;2.00;1.00;;;25.10;61.10;;;;;;5048452;28;20701;-68
2022/06/26 08:26:51;;;;;;;1.95;1.02;;;25.10;61.10;;;;;;5049187;28;20374;-72
2022/06/26 08:29:18;;;;;;;2.88;1.23;;;25.20;60.50;;;;;;5049331;28;20171;-69
2022/06/26 08:31:45;;;;;;;1.40;0.82;;;25.20;60.40;;;;;;5047656;28;20550;-69
2022/06/26 08:34:14;;;;;;;2.10;1.20;;;25.30;60.10;;;;;;5049507;28;20045;-68
2022/06/26 08:36:41;;;;;;;1.88;1.00;;;25.40;60.90;;;;;;5048164;28;20061;-69
2022/06/26 08:39:08;;;;;;;2.38;1.17;;;25.40;60.50;;;;;;5046463;28;21012;-68
2022/06/26 08:41:40;;;;;;;4.78;1.25;;;25.50;59.80;;;;;;5052263;28;20055;-68
2022/06/26 08:44:08;;;;;;;2.20;1.30;;;25.50;60.20;;;;;;5055032;28;20408;-66
2022/06/26 08:46:38;;;;;;;2.60;1.20;;;25.60;59.50;;;;;;5049892;28;20049;-65
2022/06/26 08:49:09;;;;;;;2.88;1.02;;;25.70;59.50;;;;;;5052441;28;20040;-67
2022/06/26 08:51:40;;;;;;;1.83;1.13;;;25.80;59.10;;;;;;5050219;28;20162;-68
2022/06/26 08:54:09;;;;;;;3.95;1.75;;;25.80;59.00;;;;;;5046634;28;20044;-69
2022/06/26 08:56:38;;;;;;;5.53;1.20;;;25.80;58.90;;;;;;5051534;28;20136;-69
2022/06/26 08:59:05;;;;;;;2.78;1.33;;;25.90;58.70;;;;;;5049710;28;20102;-66
2022/06/26 09:01:32;;;;;;;3.15;1.23;;;25.90;58.60;;;;;;5047185;28;20045;-68
2022/06/26 09:03:59;;;;;;;5.80;1.38;;;25.90;58.40;;;;;;5046825;28;20088;-67
2022/06/26 09:06:26;;;;;;;2.70;1.38;;;26.00;58.30;;;;;;5044481;28;20058;-68
2022/06/26 09:08:54;;;;;;;2.33;1.00;;;26.10;58.70;;;;;;5042400;28;20068;-69
2022/06/26 09:11:22;;;;;;;2.20;1.00;;;26.10;58.50;;;;;;5047520;28;20048;-68
2022/06/26 09:13:53;;;;;;;3.08;1.10;;;26.10;58.00;;;;;;5047594;28;20132;-66
2022/06/26 09:16:29;;;;;;;3.67;1.42;;;26.10;57.90;;;;;;5042449;28;20052;-69
2022/06/26 09:18:56;;;;;;;1.95;1.15;;;26.10;58.30;;;;;;5047103;28;20052;-65
2022/06/26 09:21:27;;;;;;;2.65;1.25;;;26.20;57.50;;;;;;5045525;28;20776;-69
2022/06/26 09:23:55;;;;;;;1.83;1.00;;;26.30;57.20;;;;;;5040875;28;20056;-67
2022/06/26 09:26:23;;;;;;;2.85;1.27;;;26.40;56.90;;;;;;5047951;28;20067;-68
2022/06/26 09:28:49;;;;;;;2.92;1.00;;;26.50;56.80;;;;;;5045673;28;20332;-68
2022/06/26 09:31:21;;;;;;;3.60;1.02;;;26.50;56.60;;;;;;5049955;28;20117;-70
2022/06/26 09:33:48;;;;;;;3.20;1.00;;;26.60;56.90;;;;;;5049463;28;20048;-69
2022/06/26 09:36:17;;;;;;;2.85;1.25;;;26.70;56.30;;;;;;5047538;28;20064;-68
2022/06/26 09:38:49;;;;;;;1.35;0.70;;;26.70;56.90;;;;;;5052792;28;20099;-68
2022/06/26 09:41:28;;;;;;;1.85;0.90;;;26.80;56.00;;;;;;5047292;28;20056;-65
2022/06/26 09:43:55;;;;;;;1.50;0.70;;;26.80;55.80;;;;;;5039569;28;20123;-68
2022/06/26 09:46:29;;;;;;;2.30;0.90;;;26.80;55.70;;;;;;5043550;28;20083;-67
2022/06/26 09:48:58;;;;;;;3.03;0.95;;;26.80;56.30;;;;;;5045881;28;20040;-65
2022/06/26 09:51:25;;;;;;;3.85;0.93;;;26.90;55.40;;;;;;5049350;28;20037;-69
2022/06/26 09:53:53;;;;;;;2.35;0.93;;;27.10;56.20;;;;;;5046344;28;20055;-68
2022/06/26 09:56:22;;;;;;;1.27;0.75;;;27.30;54.60;;;;;;5050459;28;20045;-66
2022/06/26 09:58:51;;;;;;;1.45;0.80;;;27.20;54.70;;;;;;5052865;28;20135;-68
2022/06/26 10:06:51;;;;;;;1.38;0.80;;;27.30;54.00;;;;;;5047858;28;20056;-67
2022/06/26 10:09:19;;;;;;;1.20;0.70;;;27.50;54.50;;;;;;5050045;28;20048;-69
2022/06/26 10:11:47;;;;;;;2.70;0.60;;;27.60;53.80;;;;;;5046462;27;24832;-66
2022/06/26 10:14:18;;;;;;;2.63;0.80;;;27.50;54.00;;;;;;5045450;28;20068;-66
2022/06/26 10:17:20;;;;;;;0.85;0.68;;;27.50;53.60;;;;;;5048985;28;20045;-71
2022/06/26 10:19:51;;;;;;;2.65;0.90;;;27.60;53.90;;;;;;5046684;28;20068;-66
2022/06/26 10:22:19;;;;;;;1.40;1.08;;;27.40;53.70;;;;;;5048156;28;20549;-66
2022/06/26 10:24:55;;;;;;;1.25;0.80;;;27.50;54.50;;;;;;5044863;28;20194;-67
2022/06/26 10:27:29;;;;;;;1.30;0.75;;;27.60;54.20;;;;;;5048284;28;20043;-67
2022/06/26 10:30:11;;;;;;;1.52;0.90;;;27.80;53.80;;;;;;5050729;28;20044;-67
2022/06/26 10:32:38;;;;;;;3.13;0.82;;;27.70;53.00;;;;;;5051048;28;20045;-65
2022/06/26 10:35:06;;;;;;;3.85;1.10;;;27.70;53.30;;;;;;5048958;28;20408;-65
2022/06/26 10:37:42;;;;;;;3.50;0.90;;;28.00;53.90;;;;;;5049449;28;20048;-68
2022/06/26 10:42:52;;;;;;;2.00;0.90;;;28.10;53.00;;;;;;5046005;28;20072;-71
2022/06/26 10:43:02;;;;;;;1.40;0.80;;;28.30;52.50;;;;;;5046323;28;20036;-71
2022/06/26 10:45:32;;;;;;;2.35;0.70;;;28.50;52.60;;;;;;5047158;28;20075;-66
2022/06/26 10:48:01;;;;;;;1.73;0.98;;;28.50;51.70;;;;;;5046064;28;20049;-69
2022/06/26 10:50:32;;;;;;;1.48;1.00;;;28.50;51.50;;;;;;5044530;28;20045;-69
2022/06/26 10:53:20;;;;;;;1.85;0.90;;;28.40;51.80;;;;;;5041381;28;20319;-69
2022/06/26 10:55:51;;;;;;;0.90;0.70;;;28.50;51.50;;;;;;5050357;28;20040;-68
2022/06/26 10:58:23;;;;;;;1.20;0.80;;;28.50;51.90;;;;;;5056375;28;20045;-69
2022/06/26 11:00:51;;;;;;;2.88;1.02;;;28.50;51.30;;;;;;5045854;28;20106;-70
2022/06/26 11:03:19;;;;;;;2.40;0.80;;;28.50;51.20;;;;;;5048661;28;20040;-67
2022/06/26 11:05:58;;;;;;;1.10;0.90;;;28.50;51.10;;;;;;5042468;28;20128;-68
2022/06/26 11:08:30;;;;;;;1.33;0.95;;;28.50;51.10;;;;;;5047336;28;20140;-69
2022/06/26 11:11:06;;;;;;;1.77;1.00;;;28.60;51.20;;;;;;5045119;28;20476;-67
2022/06/26 11:13:36;;;;;;;1.45;0.90;;;28.70;51.10;;;;;;5044883;28;20045;-69
2022/06/26 11:16:12;;;;;;;1.77;0.80;;;28.80;50.90;;;;;;5042980;28;20041;-70
2022/06/26 11:18:39;;;;;;;2.20;0.95;;;28.80;50.90;;;;;;5042334;28;20449;-67
2022/06/26 11:21:06;;;;;;;1.33;0.70;;;28.60;50.70;;;;;;5041978;28;20041;-70
2022/06/26 11:23:34;;;;;;;1.48;0.90;;;28.60;50.80;;;;;;5046858;28;20136;-71
2022/06/26 11:26:03;;;;;;;0.95;0.73;;;28.60;50.90;;;;;;5042012;28;20107;-69
2022/06/26 11:28:35;;;;;;;2.13;1.10;;;28.40;51.10;;;;;;5039909;28;20520;-67
2022/06/26 11:31:03;;;;;;;1.60;0.95;;;28.50;51.70;;;;;;5052813;28;20526;-69
2022/06/26 11:33:34;;;;;;;1.65;0.80;;;28.60;51.30;;;;;;5045440;28;20139;-67
2022/06/26 11:36:06;;;;;;;3.00;1.38;;;28.60;50.80;;;;;;5047265;28;20044;-68
2022/06/26 11:38:33;;;;;;;2.58;0.80;;;28.60;50.50;;;;;;5051791;28;20398;-66
2022/06/26 11:41:02;;;;;;;2.53;1.10;;;28.70;50.70;;;;;;5046105;28;20417;-67
2022/06/26 11:43:30;;;;;;;1.88;0.80;;;28.80;50.20;;;;;;5047239;28;20049;-71
2022/06/26 11:45:59;;;;;;;1.40;0.80;;;28.90;50.00;;;;;;5047274;28;22148;-67
2022/06/26 11:48:26;;;;;;;;;;;28.90;50.00;;;;;;5049449;28;20508;-67
2022/06/26 11:50:55;;;;;;;2.05;0.98;;;28.60;50.40;;;;;;5046591;28;20292;-67
2022/06/26 11:53:24;;;;;;;1.33;0.75;;;28.50;50.60;;;;;;5036683;28;20043;-67
2022/06/26 11:55:55;;;;;;;1.48;0.80;;;28.30;51.10;;;;;;5048582;28;20068;-67
2022/06/26 11:58:24;;;;;;;2.40;0.90;;;28.10;51.40;;;;;;5045212;28;20133;-66
2022/06/26 12:01:05;;;;;;;2.00;1.20;;;28.20;51.20;;;;;;5046861;28;20063;-68
2022/06/26 12:03:32;;;;;;;2.03;0.80;;;28.10;51.60;;;;;;5048459;28;20057;-66
2022/06/26 12:05:59;;;;;;;1.70;0.90;;;28.00;51.40;;;;;;5052518;28;20128;-69
2022/06/26 12:08:29;;;;;;;1.67;0.90;;;28.20;51.40;;;;;;5050300;28;20060;-67
2022/06/26 12:10:56;;;;;;;2.90;1.50;;;28.30;50.90;;;;;;5047556;28;20132;-66
2022/06/26 12:13:26;;;;;;;2.85;1.33;;;28.40;51.20;;;;;;5047749;28;20568;-66
2022/06/26 12:15:53;;;;;;;1.08;0.80;;;28.70;49.70;;;;;;5047901;28;21590;-68
2022/06/26 12:18:27;;;;;;;2.83;1.17;;;28.50;50.10;;;;;;5044853;28;20053;-67
2022/06/26 12:20:54;;;;;;;2.55;1.30;;;28.30;50.50;;;;;;5050514;28;20064;-67
2022/06/26 12:23:31;;;;;;;2.75;1.50;;;28.50;50.40;;;;;;5045170;28;20047;-69
2022/06/26 12:26:09;;;;;;;3.95;2.05;;;28.40;50.50;;;;;;5050497;28;20045;-68
2022/06/26 12:28:44;;;;;;;4.28;2.25;;;28.60;50.10;;;;;;5051989;28;20040;-68
2022/06/26 12:31:12;;;;;;;5.80;3.28;;;28.90;49.70;;;;;;5055739;28;20068;-64
2022/06/26 12:33:40;;;;;;;4.90;2.83;;;29.00;50.10;;;;;;5057593;28;20499;-68
2022/06/26 12:36:07;;;;;;;5.85;2.65;;;29.10;49.70;;;;;;5057309;28;20471;-65
2022/06/26 12:38:36;;;;;;;3.85;2.17;;;29.20;49.50;;;;;;5060668;28;20065;-66
2022/06/26 12:41:03;;;;;;;4.25;1.85;;;29.30;49.30;;;;;;5058241;28;20473;-70
2022/06/26 12:43:30;;;;;;;2.90;1.75;;;29.20;49.00;;;;;;5058477;28;20048;-68
2022/06/26 12:45:58;;;;;;;1.90;1.10;;;28.90;49.50;;;;;;5057181;28;20058;-69
2022/06/26 12:48:25;;;;;;;1.98;1.00;;;28.50;50.30;;;;;;5059194;28;20082;-68
2022/06/26 12:50:53;;;;;;;3.65;1.10;;;28.30;50.50;;;;;;5059651;28;20067;-69
2022/06/26 12:53:21;;;;;;;2.45;1.20;;;28.30;50.70;;;;;;5055143;28;20044;-68
2022/06/26 12:55:48;;;;;;;2.83;1.13;;;28.40;50.40;;;;;;5056124;28;20069;-69
2022/06/26 12:58:16;;;;;;;2.38;1.40;;;28.40;50.40;;;;;;5057214;28;20143;-67
2022/06/26 13:00:43;;;;;;;3.85;2.40;;;28.50;50.30;;;;;;5053232;28;20049;-69
2022/06/26 13:03:10;;;;;;;3.38;1.63;;;28.70;50.00;;;;;;5057026;28;20052;-70
2022/06/26 13:05:37;;;;;;;2.58;1.80;;;28.90;49.40;;;;;;5058503;28;20040;-68
2022/06/26 13:08:06;;;;;;;2.17;1.38;;;29.00;49.10;;;;;;5058745;28;20460;-66
2022/06/26 13:10:33;;;;;;;2.92;1.35;;;29.00;49.50;;;;;;5058288;28;20073;-67